sensor_id;sensor_type;location;lat;lon;timestamp;P1;durP1;ratioP1;P2;durP2;ratioP2
12171;SDS011;6149;52.418;13.668;2023-03-08T00:01:58;5.27;;;2.10;;
12171;SDS011;6149;52.418;13.668;2023-03-08T00:04:25;7.53;;;2.73;;
12171;SDS011;6149;52.418;13.668;2023-03-08T00:06:51;4.40;;;2.40;;
12171;SDS011;6149;52.418;13.668;2023-03-08T00:09:18;4.60;;;2.20;;
12171;SDS011;6149;52.418;13.668;2023-03-08T00:11:46;6.17;;;2.50;;
12171;SDS011;6149;52.418;13.668;2023-03-08T00:14:12;3.93;;;2.20;;
12171;SDS011;6149;52.418;13.668;2023-03-08T00:16:39;7.03;;;2.30;;
12171;SDS011;6149;52.418;13.668;2023-03-08T00:19:05;6.10;;;2.70;;
12171;SDS011;6149;52.418;13.668;2023-03-08T00:21:32;3.97;;;2.13;;
12171;SDS011;6149;52.418;13.668;2023-03-08T00:23:59;4.87;;;2.20;;
12171;SDS011;6149;52.418;13.668;2023-03-08T00:26:25;3.30;;;2.27;;
12171;SDS011;6149;52.418;13.668;2023-03-08T00:28:54;5.87;;;2.53;;
12171;SDS011;6149;52.418;13.668;2023-03-08T00:31:21;7.77;;;2.67;;
12171;SDS011;6149;52.418;13.668;2023-03-08T00:33:50;5.47;;;2.23;;
12171;SDS011;6149;52.418;13.668;2023-03-08T00:36:18;3.90;;;2.37;;
12171;SDS011;6149;52.418;13.668;2023-03-08T00:38:46;4.73;;;2.60;;
12171;SDS011;6149;52.418;13.668;2023-03-08T00:41:15;4.73;;;2.30;;
12171;SDS011;6149;52.418;13.668;2023-03-08T00:43:42;4.60;;;2.77;;
12171;SDS011;6149;52.418;13.668;2023-03-08T00:46:10;7.40;;;3.20;;
12171;SDS011;6149;52.418;13.668;2023-03-08T00:48:38;3.40;;;2.30;;
12171;SDS011;6149;52.418;13.668;2023-03-08T00:51:05;4.33;;;2.33;;
12171;SDS011;6149;52.418;13.668;2023-03-08T00:53:32;4.77;;;2.17;;
12171;SDS011;6149;52.418;13.668;2023-03-08T00:55:59;7.87;;;2.77;;
12171;SDS011;6149;52.418;13.668;2023-03-08T00:58:26;5.43;;;2.60;;
12171;SDS011;6149;52.418;13.668;2023-03-08T01:00:54;6.00;;;2.50;;
12171;SDS011;6149;52.418;13.668;2023-03-08T01:03:22;5.37;;;2.60;;
12171;SDS011;6149;52.418;13.668;2023-03-08T01:05:51;4.70;;;2.07;;
12171;SDS011;6149;52.418;13.668;2023-03-08T01:08:20;8.30;;;2.60;;
12171;SDS011;6149;52.418;13.668;2023-03-08T01:10:48;5.53;;;3.10;;
12171;SDS011;6149;52.418;13.668;2023-03-08T01:13:16;6.03;;;2.70;;
12171;SDS011;6149;52.418;13.668;2023-03-08T01:15:43;5.13;;;2.67;;
12171;SDS011;6149;52.418;13.668;2023-03-08T01:18:10;7.23;;;3.13;;
12171;SDS011;6149;52.418;13.668;2023-03-08T01:20:38;6.33;;;2.87;;
12171;SDS011;6149;52.418;13.668;2023-03-08T01:23:04;6.67;;;2.80;;
12171;SDS011;6149;52.418;13.668;2023-03-08T01:25:31;6.33;;;2.80;;
12171;SDS011;6149;52.418;13.668;2023-03-08T01:27:57;7.57;;;3.73;;
12171;SDS011;6149;52.418;13.668;2023-03-08T01:30:24;5.63;;;3.13;;
12171;SDS011;6149;52.418;13.668;2023-03-08T01:32:51;9.13;;;3.80;;
12171;SDS011;6149;52.418;13.668;2023-03-08T01:35:17;8.93;;;3.80;;
12171;SDS011;6149;52.418;13.668;2023-03-08T01:37:45;9.77;;;4.10;;
12171;SDS011;6149;52.418;13.668;2023-03-08T01:40:17;6.83;;;3.43;;
12171;SDS011;6149;52.418;13.668;2023-03-08T01:42:44;7.63;;;3.83;;
12171;SDS011;6149;52.418;13.668;2023-03-08T01:48:39;7.10;;;3.57;;
12171;SDS011;6149;52.418;13.668;2023-03-08T01:51:10;7.13;;;3.97;;
12171;SDS011;6149;52.418;13.668;2023-03-08T01:53:42;5.10;;;3.63;;
12171;SDS011;6149;52.418;13.668;2023-03-08T01:56:10;8.03;;;3.90;;
12171;SDS011;6149;52.418;13.668;2023-03-08T01:58:39;6.53;;;4.33;;
12171;SDS011;6149;52.418;13.668;2023-03-08T02:01:07;13.07;;;4.17;;
12171;SDS011;6149;52.418;13.668;2023-03-08T02:03:33;6.63;;;4.00;;
12171;SDS011;6149;52.418;13.668;2023-03-08T02:06:00;8.13;;;4.30;;
12171;SDS011;6149;52.418;13.668;2023-03-08T02:08:29;7.80;;;4.23;;
12171;SDS011;6149;52.418;13.668;2023-03-08T02:10:58;7.53;;;5.03;;
12171;SDS011;6149;52.418;13.668;2023-03-08T02:13:25;6.93;;;4.30;;
12171;SDS011;6149;52.418;13.668;2023-03-08T02:15:53;7.67;;;4.57;;
12171;SDS011;6149;52.418;13.668;2023-03-08T02:18:22;7.27;;;4.70;;
12171;SDS011;6149;52.418;13.668;2023-03-08T02:23:41;9.13;;;4.73;;
12171;SDS011;6149;52.418;13.668;2023-03-08T02:26:08;8.30;;;5.17;;
12171;SDS011;6149;52.418;13.668;2023-03-08T02:28:34;10.27;;;4.90;;
12171;SDS011;6149;52.418;13.668;2023-03-08T02:31:01;9.73;;;5.60;;
12171;SDS011;6149;52.418;13.668;2023-03-08T02:33:27;8.30;;;5.30;;
12171;SDS011;6149;52.418;13.668;2023-03-08T02:35:54;11.40;;;5.73;;
12171;SDS011;6149;52.418;13.668;2023-03-08T02:38:21;13.87;;;6.33;;
12171;SDS011;6149;52.418;13.668;2023-03-08T02:40:49;12.30;;;6.10;;
12171;SDS011;6149;52.418;13.668;2023-03-08T02:43:17;12.10;;;6.07;;
12171;SDS011;6149;52.418;13.668;2023-03-08T02:45:44;12.13;;;6.40;;
12171;SDS011;6149;52.418;13.668;2023-03-08T02:48:11;11.03;;;7.13;;
12171;SDS011;6149;52.418;13.668;2023-03-08T02:50:39;10.63;;;6.67;;
12171;SDS011;6149;52.418;13.668;2023-03-08T02:53:05;16.77;;;7.53;;
12171;SDS011;6149;52.418;13.668;2023-03-08T02:55:33;12.23;;;6.80;;
12171;SDS011;6149;52.418;13.668;2023-03-08T02:58:01;12.70;;;7.13;;
12171;SDS011;6149;52.418;13.668;2023-03-08T03:00:29;15.43;;;8.03;;
12171;SDS011;6149;52.418;13.668;2023-03-08T03:02:55;15.33;;;7.53;;
12171;SDS011;6149;52.418;13.668;2023-03-08T03:05:23;18.23;;;8.80;;
12171;SDS011;6149;52.418;13.668;2023-03-08T03:07:49;16.73;;;9.03;;
12171;SDS011;6149;52.418;13.668;2023-03-08T03:10:19;19.20;;;9.43;;
12171;SDS011;6149;52.418;13.668;2023-03-08T03:12:46;20.47;;;9.87;;
12171;SDS011;6149;52.418;13.668;2023-03-08T03:15:14;15.03;;;9.00;;
12171;SDS011;6149;52.418;13.668;2023-03-08T03:17:40;23.93;;;9.90;;
12171;SDS011;6149;52.418;13.668;2023-03-08T03:20:07;20.00;;;9.77;;
12171;SDS011;6149;52.418;13.668;2023-03-08T03:22:35;17.93;;;9.90;;
12171;SDS011;6149;52.418;13.668;2023-03-08T03:25:03;22.07;;;10.10;;
12171;SDS011;6149;52.418;13.668;2023-03-08T03:27:30;20.87;;;10.17;;
12171;SDS011;6149;52.418;13.668;2023-03-08T03:30:00;18.17;;;9.83;;
12171;SDS011;6149;52.418;13.668;2023-03-08T03:32:29;18.30;;;9.60;;
12171;SDS011;6149;52.418;13.668;2023-03-08T03:34:55;20.57;;;9.73;;
12171;SDS011;6149;52.418;13.668;2023-03-08T03:37:22;21.00;;;10.93;;
12171;SDS011;6149;52.418;13.668;2023-03-08T03:39:48;18.27;;;10.10;;
12171;SDS011;6149;52.418;13.668;2023-03-08T03:42:15;23.53;;;11.50;;
12171;SDS011;6149;52.418;13.668;2023-03-08T03:44:42;21.60;;;11.33;;
12171;SDS011;6149;52.418;13.668;2023-03-08T03:47:08;23.63;;;10.63;;
12171;SDS011;6149;52.418;13.668;2023-03-08T03:49:37;20.53;;;11.00;;
12171;SDS011;6149;52.418;13.668;2023-03-08T03:52:03;17.50;;;10.80;;
12171;SDS011;6149;52.418;13.668;2023-03-08T03:54:31;25.87;;;11.63;;
12171;SDS011;6149;52.418;13.668;2023-03-08T03:56:58;24.07;;;12.07;;
12171;SDS011;6149;52.418;13.668;2023-03-08T03:59:24;21.40;;;11.33;;
12171;SDS011;6149;52.418;13.668;2023-03-08T04:01:51;21.47;;;12.03;;
12171;SDS011;6149;52.418;13.668;2023-03-08T04:04:18;22.40;;;11.87;;
12171;SDS011;6149;52.418;13.668;2023-03-08T04:06:46;24.33;;;12.70;;
12171;SDS011;6149;52.418;13.668;2023-03-08T04:09:14;23.30;;;12.93;;
12171;SDS011;6149;52.418;13.668;2023-03-08T04:11:43;21.33;;;12.20;;
12171;SDS011;6149;52.418;13.668;2023-03-08T04:14:09;19.17;;;10.70;;
12171;SDS011;6149;52.418;13.668;2023-03-08T04:16:37;24.50;;;12.53;;
12171;SDS011;6149;52.418;13.668;2023-03-08T04:19:05;22.10;;;10.87;;
12171;SDS011;6149;52.418;13.668;2023-03-08T04:21:35;23.20;;;12.17;;
12171;SDS011;6149;52.418;13.668;2023-03-08T04:24:03;21.17;;;10.97;;
12171;SDS011;6149;52.418;13.668;2023-03-08T04:26:31;20.63;;;12.73;;
12171;SDS011;6149;52.418;13.668;2023-03-08T04:28:57;24.13;;;11.50;;
12171;SDS011;6149;52.418;13.668;2023-03-08T04:31:27;20.27;;;11.80;;
12171;SDS011;6149;52.418;13.668;2023-03-08T04:33:54;17.73;;;11.30;;
12171;SDS011;6149;52.418;13.668;2023-03-08T04:36:22;22.13;;;11.33;;
12171;SDS011;6149;52.418;13.668;2023-03-08T04:38:48;19.07;;;11.37;;
12171;SDS011;6149;52.418;13.668;2023-03-08T04:41:17;17.93;;;11.47;;
12171;SDS011;6149;52.418;13.668;2023-03-08T04:43:44;19.40;;;11.27;;
12171;SDS011;6149;52.418;13.668;2023-03-08T04:46:14;21.20;;;11.07;;
12171;SDS011;6149;52.418;13.668;2023-03-08T04:48:41;18.47;;;11.33;;
12171;SDS011;6149;52.418;13.668;2023-03-08T04:51:09;17.23;;;10.90;;
12171;SDS011;6149;52.418;13.668;2023-03-08T04:53:37;19.23;;;10.97;;
12171;SDS011;6149;52.418;13.668;2023-03-08T04:56:05;18.93;;;11.20;;
12171;SDS011;6149;52.418;13.668;2023-03-08T04:58:35;16.27;;;10.03;;
12171;SDS011;6149;52.418;13.668;2023-03-08T05:01:07;21.43;;;11.70;;
12171;SDS011;6149;52.418;13.668;2023-03-08T05:03:35;17.07;;;10.57;;
12171;SDS011;6149;52.418;13.668;2023-03-08T05:06:01;15.70;;;10.67;;
12171;SDS011;6149;52.418;13.668;2023-03-08T05:08:28;18.00;;;10.27;;
12171;SDS011;6149;52.418;13.668;2023-03-08T05:10:56;17.00;;;10.87;;
12171;SDS011;6149;52.418;13.668;2023-03-08T05:13:25;17.47;;;10.80;;
12171;SDS011;6149;52.418;13.668;2023-03-08T05:15:55;16.77;;;10.67;;
12171;SDS011;6149;52.418;13.668;2023-03-08T05:18:22;15.30;;;10.13;;
12171;SDS011;6149;52.418;13.668;2023-03-08T05:20:52;19.37;;;10.63;;
12171;SDS011;6149;52.418;13.668;2023-03-08T05:23:20;15.13;;;10.17;;
12171;SDS011;6149;52.418;13.668;2023-03-08T05:25:50;17.30;;;9.93;;
12171;SDS011;6149;52.418;13.668;2023-03-08T05:28:18;13.97;;;9.77;;
12171;SDS011;6149;52.418;13.668;2023-03-08T05:30:45;13.83;;;9.97;;
12171;SDS011;6149;52.418;13.668;2023-03-08T05:33:13;15.10;;;9.03;;
12171;SDS011;6149;52.418;13.668;2023-03-08T05:35:40;13.23;;;9.07;;
12171;SDS011;6149;52.418;13.668;2023-03-08T05:38:07;14.63;;;9.30;;
12171;SDS011;6149;52.418;13.668;2023-03-08T05:40:33;12.80;;;8.90;;
12171;SDS011;6149;52.418;13.668;2023-03-08T05:43:00;14.20;;;9.50;;
12171;SDS011;6149;52.418;13.668;2023-03-08T05:45:27;14.70;;;9.13;;
12171;SDS011;6149;52.418;13.668;2023-03-08T05:47:53;16.03;;;10.07;;
12171;SDS011;6149;52.418;13.668;2023-03-08T05:50:21;15.57;;;10.10;;
12171;SDS011;6149;52.418;13.668;2023-03-08T05:52:48;13.90;;;9.00;;
12171;SDS011;6149;52.418;13.668;2023-03-08T05:55:15;13.00;;;8.87;;
12171;SDS011;6149;52.418;13.668;2023-03-08T05:57:41;13.50;;;9.13;;
12171;SDS011;6149;52.418;13.668;2023-03-08T06:00:08;13.83;;;9.23;;
12171;SDS011;6149;52.418;13.668;2023-03-08T06:02:36;13.57;;;9.43;;
12171;SDS011;6149;52.418;13.668;2023-03-08T06:05:03;14.57;;;9.17;;
12171;SDS011;6149;52.418;13.668;2023-03-08T06:07:32;16.10;;;9.93;;
12171;SDS011;6149;52.418;13.668;2023-03-08T06:09:58;14.23;;;9.37;;
12171;SDS011;6149;52.418;13.668;2023-03-08T06:12:25;13.90;;;9.20;;
12171;SDS011;6149;52.418;13.668;2023-03-08T06:14:51;14.30;;;9.53;;
12171;SDS011;6149;52.418;13.668;2023-03-08T06:17:18;14.33;;;9.97;;
12171;SDS011;6149;52.418;13.668;2023-03-08T06:19:45;15.90;;;9.73;;
12171;SDS011;6149;52.418;13.668;2023-03-08T06:22:14;12.57;;;9.13;;
12171;SDS011;6149;52.418;13.668;2023-03-08T06:24:42;11.63;;;8.60;;
12171;SDS011;6149;52.418;13.668;2023-03-08T06:27:08;15.87;;;10.27;;
12171;SDS011;6149;52.418;13.668;2023-03-08T06:29:35;11.23;;;8.87;;
12171;SDS011;6149;52.418;13.668;2023-03-08T06:32:02;17.70;;;11.33;;
12171;SDS011;6149;52.418;13.668;2023-03-08T06:34:29;16.57;;;11.00;;
12171;SDS011;6149;52.418;13.668;2023-03-08T06:36:56;18.00;;;10.90;;
12171;SDS011;6149;52.418;13.668;2023-03-08T06:39:24;16.73;;;10.53;;
12171;SDS011;6149;52.418;13.668;2023-03-08T06:41:56;17.87;;;10.20;;
12171;SDS011;6149;52.418;13.668;2023-03-08T06:44:22;15.33;;;11.03;;
12171;SDS011;6149;52.418;13.668;2023-03-08T06:46:49;15.77;;;10.77;;
12171;SDS011;6149;52.418;13.668;2023-03-08T06:49:16;17.30;;;11.37;;
12171;SDS011;6149;52.418;13.668;2023-03-08T06:51:42;15.70;;;10.70;;
12171;SDS011;6149;52.418;13.668;2023-03-08T06:54:09;15.27;;;10.77;;
12171;SDS011;6149;52.418;13.668;2023-03-08T06:56:38;17.37;;;10.97;;
12171;SDS011;6149;52.418;13.668;2023-03-08T06:59:06;15.37;;;10.90;;
12171;SDS011;6149;52.418;13.668;2023-03-08T07:01:33;19.57;;;11.93;;
12171;SDS011;6149;52.418;13.668;2023-03-08T07:03:59;18.10;;;11.73;;
12171;SDS011;6149;52.418;13.668;2023-03-08T07:06:26;18.10;;;11.70;;
12171;SDS011;6149;52.418;13.668;2023-03-08T07:08:52;20.13;;;11.67;;
12171;SDS011;6149;52.418;13.668;2023-03-08T07:11:19;16.27;;;11.63;;
12171;SDS011;6149;52.418;13.668;2023-03-08T07:13:46;17.33;;;11.67;;
12171;SDS011;6149;52.418;13.668;2023-03-08T07:16:14;18.77;;;11.53;;
12171;SDS011;6149;52.418;13.668;2023-03-08T07:18:41;18.13;;;11.47;;
12171;SDS011;6149;52.418;13.668;2023-03-08T07:21:08;18.23;;;11.67;;
12171;SDS011;6149;52.418;13.668;2023-03-08T07:23:35;17.70;;;11.47;;
12171;SDS011;6149;52.418;13.668;2023-03-08T07:26:03;18.03;;;10.70;;
12171;SDS011;6149;52.418;13.668;2023-03-08T07:28:30;17.10;;;11.10;;
12171;SDS011;6149;52.418;13.668;2023-03-08T07:30:57;17.17;;;12.03;;
12171;SDS011;6149;52.418;13.668;2023-03-08T07:33:25;18.73;;;12.17;;
12171;SDS011;6149;52.418;13.668;2023-03-08T07:35:51;18.27;;;10.87;;
12171;SDS011;6149;52.418;13.668;2023-03-08T07:38:18;14.67;;;10.60;;
12171;SDS011;6149;52.418;13.668;2023-03-08T07:40:45;20.83;;;11.67;;
12171;SDS011;6149;52.418;13.668;2023-03-08T07:43:19;16.13;;;11.23;;
12171;SDS011;6149;52.418;13.668;2023-03-08T07:45:46;17.83;;;12.17;;
12171;SDS011;6149;52.418;13.668;2023-03-08T07:48:13;18.17;;;12.60;;
12171;SDS011;6149;52.418;13.668;2023-03-08T07:50:41;22.30;;;14.07;;
12171;SDS011;6149;52.418;13.668;2023-03-08T07:53:08;19.20;;;11.77;;
12171;SDS011;6149;52.418;13.668;2023-03-08T07:55:35;16.63;;;10.53;;
12171;SDS011;6149;52.418;13.668;2023-03-08T07:58:02;16.43;;;10.43;;
12171;SDS011;6149;52.418;13.668;2023-03-08T08:00:28;15.50;;;10.07;;
12171;SDS011;6149;52.418;13.668;2023-03-08T08:02:55;16.97;;;11.00;;
12171;SDS011;6149;52.418;13.668;2023-03-08T08:05:22;14.20;;;9.97;;
12171;SDS011;6149;52.418;13.668;2023-03-08T08:07:50;15.93;;;10.53;;
12171;SDS011;6149;52.418;13.668;2023-03-08T08:10:17;15.87;;;10.50;;
12171;SDS011;6149;52.418;13.668;2023-03-08T08:12:43;14.40;;;10.10;;
12171;SDS011;6149;52.418;13.668;2023-03-08T08:15:10;14.07;;;10.03;;
12171;SDS011;6149;52.418;13.668;2023-03-08T08:17:37;17.20;;;10.10;;
12171;SDS011;6149;52.418;13.668;2023-03-08T08:20:04;14.67;;;9.70;;
12171;SDS011;6149;52.418;13.668;2023-03-08T08:22:33;15.53;;;9.63;;
12171;SDS011;6149;52.418;13.668;2023-03-08T08:25:03;15.70;;;9.93;;
12171;SDS011;6149;52.418;13.668;2023-03-08T08:27:30;12.73;;;9.53;;
12171;SDS011;6149;52.418;13.668;2023-03-08T08:29:57;12.30;;;9.47;;
12171;SDS011;6149;52.418;13.668;2023-03-08T08:32:23;13.03;;;9.60;;
12171;SDS011;6149;52.418;13.668;2023-03-08T08:34:50;11.20;;;8.43;;
12171;SDS011;6149;52.418;13.668;2023-03-08T08:37:17;14.00;;;9.40;;
12171;SDS011;6149;52.418;13.668;2023-03-08T08:39:44;11.63;;;8.90;;
12171;SDS011;6149;52.418;13.668;2023-03-08T08:42:12;12.47;;;9.00;;
12171;SDS011;6149;52.418;13.668;2023-03-08T08:44:38;11.47;;;8.80;;
12171;SDS011;6149;52.418;13.668;2023-03-08T08:47:05;9.93;;;7.77;;
12171;SDS011;6149;52.418;13.668;2023-03-08T08:49:32;11.60;;;8.43;;
12171;SDS011;6149;52.418;13.668;2023-03-08T08:52:00;11.90;;;8.83;;
12171;SDS011;6149;52.418;13.668;2023-03-08T08:54:26;10.43;;;8.17;;
12171;SDS011;6149;52.418;13.668;2023-03-08T08:56:53;9.97;;;7.83;;
12171;SDS011;6149;52.418;13.668;2023-03-08T08:59:21;11.50;;;8.77;;
12171;SDS011;6149;52.418;13.668;2023-03-08T09:01:47;11.47;;;8.47;;
12171;SDS011;6149;52.418;13.668;2023-03-08T09:04:14;14.57;;;8.63;;
12171;SDS011;6149;52.418;13.668;2023-03-08T09:06:41;11.13;;;8.23;;
12171;SDS011;6149;52.418;13.668;2023-03-08T09:09:08;11.03;;;8.17;;
12171;SDS011;6149;52.418;13.668;2023-03-08T09:11:34;11.90;;;8.13;;
12171;SDS011;6149;52.418;13.668;2023-03-08T09:14:01;9.80;;;7.60;;
12171;SDS011;6149;52.418;13.668;2023-03-08T09:16:31;10.83;;;7.53;;
12171;SDS011;6149;52.418;13.668;2023-03-08T09:19:00;10.67;;;7.63;;
12171;SDS011;6149;52.418;13.668;2023-03-08T09:21:28;9.77;;;7.37;;
12171;SDS011;6149;52.418;13.668;2023-03-08T09:23:58;11.10;;;7.63;;
12171;SDS011;6149;52.418;13.668;2023-03-08T09:26:27;11.00;;;7.23;;
12171;SDS011;6149;52.418;13.668;2023-03-08T09:28:55;11.70;;;7.17;;
12171;SDS011;6149;52.418;13.668;2023-03-08T09:31:23;8.47;;;7.07;;
12171;SDS011;6149;52.418;13.668;2023-03-08T09:33:51;8.30;;;6.37;;
12171;SDS011;6149;52.418;13.668;2023-03-08T09:36:18;9.37;;;7.13;;
12171;SDS011;6149;52.418;13.668;2023-03-08T09:38:46;11.40;;;7.10;;
12171;SDS011;6149;52.418;13.668;2023-03-08T09:41:19;9.43;;;6.30;;
12171;SDS011;6149;52.418;13.668;2023-03-08T09:44:11;11.10;;;6.83;;
12171;SDS011;6149;52.418;13.668;2023-03-08T09:46:48;9.30;;;6.00;;
12171;SDS011;6149;52.418;13.668;2023-03-08T09:49:22;10.20;;;6.63;;
12171;SDS011;6149;52.418;13.668;2023-03-08T09:51:55;6.83;;;5.80;;
12171;SDS011;6149;52.418;13.668;2023-03-08T09:54:30;8.40;;;6.07;;
12171;SDS011;6149;52.418;13.668;2023-03-08T09:57:02;7.70;;;5.50;;
12171;SDS011;6149;52.418;13.668;2023-03-08T09:59:36;7.20;;;6.07;;
12171;SDS011;6149;52.418;13.668;2023-03-08T10:02:14;14.40;;;6.27;;
12171;SDS011;6149;52.418;13.668;2023-03-08T10:04:57;7.67;;;5.70;;
12171;SDS011;6149;52.418;13.668;2023-03-08T10:07:33;7.10;;;5.33;;
12171;SDS011;6149;52.418;13.668;2023-03-08T10:10:12;8.27;;;5.90;;
12171;SDS011;6149;52.418;13.668;2023-03-08T10:12:53;7.33;;;6.00;;
12171;SDS011;6149;52.418;13.668;2023-03-08T10:15:31;5.87;;;4.90;;
12171;SDS011;6149;52.418;13.668;2023-03-08T10:18:04;6.83;;;5.13;;
12171;SDS011;6149;52.418;13.668;2023-03-08T10:20:42;6.20;;;4.80;;
12171;SDS011;6149;52.418;13.668;2023-03-08T10:23:12;6.43;;;4.53;;
12171;SDS011;6149;52.418;13.668;2023-03-08T10:25:42;7.87;;;4.93;;
12171;SDS011;6149;52.418;13.668;2023-03-08T10:28:11;6.87;;;5.17;;
12171;SDS011;6149;52.418;13.668;2023-03-08T10:30:41;5.77;;;4.23;;
12171;SDS011;6149;52.418;13.668;2023-03-08T10:33:12;5.10;;;4.47;;
12171;SDS011;6149;52.418;13.668;2023-03-08T10:35:56;5.73;;;4.20;;
12171;SDS011;6149;52.418;13.668;2023-03-08T10:38:27;5.77;;;4.57;;
12171;SDS011;6149;52.418;13.668;2023-03-08T10:41:00;7.17;;;4.27;;
12171;SDS011;6149;52.418;13.668;2023-03-08T10:43:29;5.57;;;4.10;;
12171;SDS011;6149;52.418;13.668;2023-03-08T10:45:58;6.27;;;4.30;;
12171;SDS011;6149;52.418;13.668;2023-03-08T10:48:26;5.93;;;3.50;;
12171;SDS011;6149;52.418;13.668;2023-03-08T10:50:58;3.23;;;2.93;;
12171;SDS011;6149;52.418;13.668;2023-03-08T10:53:27;4.63;;;4.00;;
12171;SDS011;6149;52.418;13.668;2023-03-08T10:55:56;4.60;;;4.10;;
12171;SDS011;6149;52.418;13.668;2023-03-08T10:58:29;5.60;;;3.90;;
12171;SDS011;6149;52.418;13.668;2023-03-08T11:01:01;5.03;;;3.67;;
12171;SDS011;6149;52.418;13.668;2023-03-08T11:03:29;4.10;;;3.70;;
12171;SDS011;6149;52.418;13.668;2023-03-08T11:05:59;8.13;;;6.27;;
12171;SDS011;6149;52.418;13.668;2023-03-08T11:08:29;6.17;;;5.20;;
12171;SDS011;6149;52.418;13.668;2023-03-08T11:11:01;4.93;;;3.60;;
12171;SDS011;6149;52.418;13.668;2023-03-08T11:13:32;8.13;;;4.30;;
12171;SDS011;6149;52.418;13.668;2023-03-08T11:16:03;5.27;;;3.60;;
12171;SDS011;6149;52.418;13.668;2023-03-08T11:18:52;3.50;;;3.00;;
12171;SDS011;6149;52.418;13.668;2023-03-08T11:21:31;4.03;;;3.23;;
12171;SDS011;6149;52.418;13.668;2023-03-08T11:24:13;5.07;;;3.10;;
12171;SDS011;6149;52.418;13.668;2023-03-08T11:26:51;5.33;;;3.70;;
12171;SDS011;6149;52.418;13.668;2023-03-08T11:29:37;4.17;;;3.33;;
12171;SDS011;6149;52.418;13.668;2023-03-08T11:32:23;4.30;;;3.60;;
12171;SDS011;6149;52.418;13.668;2023-03-08T11:35:10;5.60;;;3.80;;
12171;SDS011;6149;52.418;13.668;2023-03-08T11:37:49;4.43;;;3.43;;
12171;SDS011;6149;52.418;13.668;2023-03-08T11:40:26;4.40;;;3.67;;
12171;SDS011;6149;52.418;13.668;2023-03-08T11:43:02;4.03;;;3.63;;
12171;SDS011;6149;52.418;13.668;2023-03-08T11:45:48;5.23;;;3.80;;
12171;SDS011;6149;52.418;13.668;2023-03-08T11:48:38;4.77;;;3.50;;
12171;SDS011;6149;52.418;13.668;2023-03-08T11:51:18;5.47;;;3.80;;
12171;SDS011;6149;52.418;13.668;2023-03-08T11:53:58;4.80;;;3.80;;
12171;SDS011;6149;52.418;13.668;2023-03-08T11:56:56;4.23;;;3.27;;
12171;SDS011;6149;52.418;13.668;2023-03-08T11:59:28;5.13;;;3.33;;
12171;SDS011;6149;52.418;13.668;2023-03-08T12:02:00;5.27;;;3.67;;
12171;SDS011;6149;52.418;13.668;2023-03-08T12:04:40;4.03;;;3.63;;
12171;SDS011;6149;52.418;13.668;2023-03-08T12:07:14;4.70;;;3.47;;
12171;SDS011;6149;52.418;13.668;2023-03-08T12:09:52;13.93;;;5.00;;
12171;SDS011;6149;52.418;13.668;2023-03-08T12:12:26;9.27;;;4.37;;
12171;SDS011;6149;52.418;13.668;2023-03-08T12:14:56;7.60;;;4.13;;
12171;SDS011;6149;52.418;13.668;2023-03-08T12:17:33;4.47;;;3.50;;
12171;SDS011;6149;52.418;13.668;2023-03-08T12:20:04;4.23;;;3.57;;
12171;SDS011;6149;52.418;13.668;2023-03-08T12:22:36;3.47;;;3.10;;
12171;SDS011;6149;52.418;13.668;2023-03-08T12:25:14;3.87;;;3.57;;
12171;SDS011;6149;52.418;13.668;2023-03-08T12:27:51;5.77;;;3.83;;
12171;SDS011;6149;52.418;13.668;2023-03-08T12:30:25;3.67;;;3.10;;
12171;SDS011;6149;52.418;13.668;2023-03-08T12:33:08;6.10;;;3.97;;
12171;SDS011;6149;52.418;13.668;2023-03-08T12:35:48;5.33;;;3.57;;
12171;SDS011;6149;52.418;13.668;2023-03-08T12:41:19;5.70;;;3.23;;
12171;SDS011;6149;52.418;13.668;2023-03-08T12:44:00;5.00;;;3.60;;
12171;SDS011;6149;52.418;13.668;2023-03-08T12:46:46;5.17;;;3.57;;
12171;SDS011;6149;52.418;13.668;2023-03-08T12:49:19;3.83;;;3.40;;
12171;SDS011;6149;52.418;13.668;2023-03-08T12:51:55;5.57;;;3.53;;
12171;SDS011;6149;52.418;13.668;2023-03-08T12:54:25;4.30;;;3.10;;
12171;SDS011;6149;52.418;13.668;2023-03-08T12:56:56;4.47;;;3.33;;
12171;SDS011;6149;52.418;13.668;2023-03-08T12:59:25;4.63;;;3.63;;
12171;SDS011;6149;52.418;13.668;2023-03-08T13:01:59;4.40;;;3.80;;
12171;SDS011;6149;52.418;13.668;2023-03-08T13:04:29;4.20;;;3.73;;
12171;SDS011;6149;52.418;13.668;2023-03-08T13:09:56;4.13;;;3.23;;
12171;SDS011;6149;52.418;13.668;2023-03-08T13:12:33;3.97;;;3.33;;
12171;SDS011;6149;52.418;13.668;2023-03-08T13:15:16;4.57;;;3.67;;
12171;SDS011;6149;52.418;13.668;2023-03-08T13:17:49;4.43;;;3.97;;
12171;SDS011;6149;52.418;13.668;2023-03-08T13:20:24;4.40;;;3.90;;
12171;SDS011;6149;52.418;13.668;2023-03-08T13:23:09;5.73;;;4.20;;
12171;SDS011;6149;52.418;13.668;2023-03-08T13:25:58;6.50;;;3.57;;
12171;SDS011;6149;52.418;13.668;2023-03-08T13:28:41;7.10;;;4.63;;
12171;SDS011;6149;52.418;13.668;2023-03-08T13:31:11;6.07;;;5.37;;
12171;SDS011;6149;52.418;13.668;2023-03-08T13:33:41;7.27;;;6.47;;
12171;SDS011;6149;52.418;13.668;2023-03-08T13:36:14;7.03;;;4.87;;
12171;SDS011;6149;52.418;13.668;2023-03-08T13:38:53;5.63;;;4.30;;
12171;SDS011;6149;52.418;13.668;2023-03-08T13:41:35;8.93;;;5.20;;
12171;SDS011;6149;52.418;13.668;2023-03-08T13:44:06;8.73;;;5.40;;
12171;SDS011;6149;52.418;13.668;2023-03-08T13:46:40;7.47;;;5.37;;
12171;SDS011;6149;52.418;13.668;2023-03-08T13:49:11;8.23;;;5.33;;
12171;SDS011;6149;52.418;13.668;2023-03-08T13:51:42;7.77;;;4.73;;
12171;SDS011;6149;52.418;13.668;2023-03-08T13:54:13;6.70;;;4.80;;
12171;SDS011;6149;52.418;13.668;2023-03-08T13:56:42;6.93;;;4.87;;
12171;SDS011;6149;52.418;13.668;2023-03-08T13:59:15;6.60;;;5.33;;
12171;SDS011;6149;52.418;13.668;2023-03-08T14:01:45;6.80;;;5.20;;
12171;SDS011;6149;52.418;13.668;2023-03-08T14:04:15;9.07;;;5.63;;
12171;SDS011;6149;52.418;13.668;2023-03-08T14:06:47;8.87;;;5.17;;
12171;SDS011;6149;52.418;13.668;2023-03-08T14:09:20;6.90;;;5.50;;
12171;SDS011;6149;52.418;13.668;2023-03-08T14:11:52;8.43;;;5.80;;
12171;SDS011;6149;52.418;13.668;2023-03-08T14:14:27;8.70;;;5.60;;
12171;SDS011;6149;52.418;13.668;2023-03-08T14:16:56;7.67;;;5.50;;
12171;SDS011;6149;52.418;13.668;2023-03-08T14:19:24;9.00;;;5.77;;
12171;SDS011;6149;52.418;13.668;2023-03-08T14:21:54;7.93;;;6.13;;
12171;SDS011;6149;52.418;13.668;2023-03-08T14:24:25;8.47;;;5.73;;
12171;SDS011;6149;52.418;13.668;2023-03-08T14:26:55;6.90;;;5.30;;
12171;SDS011;6149;52.418;13.668;2023-03-08T14:29:26;10.30;;;7.23;;
12171;SDS011;6149;52.418;13.668;2023-03-08T14:31:55;13.07;;;6.80;;
12171;SDS011;6149;52.418;13.668;2023-03-08T14:34:26;12.70;;;7.57;;
12171;SDS011;6149;52.418;13.668;2023-03-08T14:36:59;9.00;;;6.77;;
12171;SDS011;6149;52.418;13.668;2023-03-08T14:39:31;10.50;;;6.53;;
12171;SDS011;6149;52.418;13.668;2023-03-08T14:42:07;10.70;;;6.37;;
12171;SDS011;6149;52.418;13.668;2023-03-08T14:44:41;11.03;;;6.47;;
12171;SDS011;6149;52.418;13.668;2023-03-08T14:47:17;9.63;;;6.20;;
12171;SDS011;6149;52.418;13.668;2023-03-08T14:49:53;9.30;;;6.97;;
12171;SDS011;6149;52.418;13.668;2023-03-08T14:52:21;9.90;;;6.40;;
12171;SDS011;6149;52.418;13.668;2023-03-08T14:54:47;9.10;;;6.50;;
12171;SDS011;6149;52.418;13.668;2023-03-08T14:57:15;11.97;;;7.33;;
12171;SDS011;6149;52.418;13.668;2023-03-08T14:59:46;9.83;;;6.87;;
12171;SDS011;6149;52.418;13.668;2023-03-08T15:02:15;10.70;;;6.43;;
12171;SDS011;6149;52.418;13.668;2023-03-08T15:04:43;10.40;;;6.97;;
12171;SDS011;6149;52.418;13.668;2023-03-08T15:07:14;12.80;;;7.07;;